Galva, Kansas
Current Conditions -  °F | °C
As of 3:35 PM on Saturday 25 Oct 2014 (Local Time) from KEWK Reporting Station
Clear Clear  
Wind Chill: 90°   Ceiling: Unl
Heat Index: 90°   Visibility: 10mi
Dew Point: 54°   Wind: 13mph
Humidity: 29%   Direction: 180°S
Pressure: 30.04"   Gusts: NA
Location:  38.38°N, 97.54°W
Report Text: KEWK 252035Z AUTO 18011KT 10SM CLR 32/12 A3004 RMK AO1
Loading
Personal Weather Stations






























Interactive Weather Map New forecast layout! Learn more

10-Day Weather Forecast

Advertisements
Track Severe Weather on mobile